Lobo

Go HERE for most recent data if this page is not up to date.

Jump to table bottom
Date/Time Temp deg F RH % 24 Hr Snow (in) Snow Depth (in) H2O (in)
04/15 15:00 34.3 76 0.1 37.5 0.00
04/15 14:00 34.4 79 0.0 37.8 0.00
04/15 13:00 34.8 81 0.7 38.0 0.00
04/15 12:00 36.0 77 1.3 38.3 0.00
04/15 11:00 35.3 77 1.9 38.5 0.00
04/15 10:00 33.0 84 1.8 38.6 0.00
04/15 09:00 31.1 97 1.9 38.8 0.00
04/15 08:00 31.1 100 1.8 38.8 0.02
04/15 07:00 30.6 100 2.0 126.5 0.05
04/15 06:00 30.6 100 1.0 37.6 0.05
04/15 05:00 31.5 100 0.0 37.5 0.02
04/15 04:00 31.9 100 0.2 37.0 0.02
04/15 03:00 33.3 88 0.0 36.9 0.00
04/15 02:00 36.1 81 0.0 37.0 0.00
04/15 01:00 39.2 47 0.0 37.0 0.00
04/15 00:00 40.5 44 0.0 37.0 0.00
04/14 23:00 40.6 39 0.0 37.0 0.00
04/14 22:00 41.0 37 0.0 37.1 0.00
04/14 21:00 41.4 43 0.0 37.0 0.00
04/14 20:00 43.1 37 0.0 37.0 0.00
04/14 19:00 45.6 28 0.0 37.0 0.00
04/14 18:00 48.1 26 0.0 37.0 0.00
04/14 17:00 49.6 22 0.0 37.1 0.00
04/14 16:00 48.1 24 -0.0 37.1 0.00
04/14 15:00 49.9 22 0.0 37.2 0.00
04/14 14:00 51.7 18 -0.0 37.4 0.00
04/14 13:00 49.5 23 -0.0 37.6 0.00
04/14 12:00 49.0 25 -0.0 37.8 0.00
04/14 11:00 47.1 29 -0.0 37.9 0.00
04/14 10:00 45.1 33 -0.0 38.0 0.00
04/14 09:00 42.5 32 0.0 38.2 0.00
04/14 08:00 39.4 37 0.0 38.2 0.00
04/14 07:00 36.7 38 -0.0 38.2 0.00
04/14 06:00 37.2 47 0.0 38.3 0.00
04/14 05:00 37.9 49 0.0 38.3 0.00
04/14 04:00 38.6 49 0.0 38.3 0.00
04/14 03:00 39.3 42 0.0 38.3 0.00
04/14 02:00 40.7 42 0.0 38.3 0.00
04/14 01:00 40.7 43 0.0 38.3 0.00
04/14 00:00 41.1 49 0.0 38.3 0.00
.